Pumpkin Bend, Arkansas
Current Conditions -  °F | °C
As of 11:56 PM on Saturday 22 Nov 2014 (Local Time) from KM19 Reporting Station
Clear Clear  
Wind Chill: 45°   Ceiling: Unl
Heat Index: 48°   Visibility: 10mi
Dew Point: 45°   Wind: 7mph
Humidity: 90%   Direction: 140°SE
Pressure: 29.89"   Gusts: NA
Location:  35.2139°N, 91.1509°W
Report Text: KM19 230556Z AUTO 14006KT 10SM CLR 09/07 A2989 RMK AO2 58028 T00880072 10133 20088 401830044 SLP120
Loading
Personal Weather Stations






























Interactive Weather Map New forecast layout! Learn more

10-Day Weather Forecast

Advertisements
Track Severe Weather on mobile